Time;durP1;ratioP1;P1;durP2;ratioP2;P2;SDS_P1;SDS_P2;PMS_P1;PMS_P2;Temp;Humidity;BMP_temperature;BMP_pressure;BME280_temperature;BME280_humidity;BME280_pressure;Samples;Min_cycle;Max_cycle;Signal;HPM_P1;HPM_P2
2023/03/05 00:02:09;;;;;;;8.93;2.73;;;3.20;99.90;;;;;;5006658;28;20327;-69
2023/03/05 00:04:36;;;;;;;9.30;2.90;;;3.10;99.90;;;;;;5006608;28;20584;-69
2023/03/05 00:07:04;;;;;;;8.47;2.57;;;3.20;99.90;;;;;;5006640;28;20280;-69
2023/03/05 00:09:31;;;;;;;11.20;3.43;;;3.10;99.90;;;;;;5005934;28;20243;-70
2023/03/05 00:11:59;;;;;;;10.87;3.00;;;3.00;99.90;;;;;;5006401;28;20296;-69
2023/03/05 00:14:26;;;;;;;7.33;2.73;;;3.00;99.90;;;;;;5006160;28;20212;-69
2023/03/05 00:16:53;;;;;;;6.17;2.20;;;2.90;99.90;;;;;;5006548;28;20308;-69
2023/03/05 00:19:20;;;;;;;10.33;2.53;;;2.90;99.90;;;;;;5007563;28;20296;-69
2023/03/05 00:21:47;;;;;;;7.10;2.17;;;2.90;99.90;;;;;;5009947;28;20297;-69
2023/03/05 00:24:16;;;;;;;8.00;2.50;;;2.80;99.90;;;;;;5009788;28;20247;-69
2023/03/05 00:26:45;;;;;;;10.67;2.80;;;2.80;99.90;;;;;;5009555;28;20277;-69
2023/03/05 00:29:17;;;;;;;9.07;2.80;;;2.80;99.90;;;;;;5009863;28;20299;-70
2023/03/05 00:31:44;;;;;;;7.17;2.23;;;2.80;99.90;;;;;;5009563;28;20221;-69
2023/03/05 00:34:14;;;;;;;8.43;2.57;;;2.80;99.90;;;;;;5009746;28;20206;-69
2023/03/05 00:36:41;;;;;;;11.40;2.83;;;2.80;99.90;;;;;;5009889;28;20202;-70
2023/03/05 00:39:08;;;;;;;13.30;2.47;;;2.90;99.90;;;;;;5009718;28;20232;-69
2023/03/05 00:41:35;;;;;;;10.27;2.63;;;2.90;99.90;;;;;;5010004;28;20503;-70
2023/03/05 00:44:02;;;;;;;8.10;2.60;;;2.90;99.90;;;;;;5009546;28;20321;-69
2023/03/05 00:46:31;;;;;;;10.63;2.57;;;2.90;99.90;;;;;;5010074;28;20363;-69
2023/03/05 00:48:57;;;;;;;5.17;1.90;;;3.00;99.90;;;;;;5009769;28;20205;-70
2023/03/05 00:51:25;;;;;;;5.33;2.00;;;3.00;99.90;;;;;;5009443;28;20738;-69
2023/03/05 00:53:52;;;;;;;8.13;2.70;;;2.90;99.90;;;;;;5008960;28;20636;-70
2023/03/05 00:56:19;;;;;;;3.97;2.03;;;2.90;99.90;;;;;;5009337;28;20352;-69
2023/03/05 00:58:46;;;;;;;8.73;2.43;;;3.00;99.90;;;;;;5009096;28;20228;-69
2023/03/05 01:01:13;;;;;;;10.13;2.43;;;2.90;99.90;;;;;;5008660;28;20292;-69
2023/03/05 01:03:42;;;;;;;7.63;2.17;;;2.90;99.90;;;;;;5008866;28;20240;-69
2023/03/05 01:06:11;;;;;;;7.77;2.03;;;3.00;99.90;;;;;;5009188;28;20229;-70
2023/03/05 01:08:38;;;;;;;6.57;1.87;;;3.00;99.90;;;;;;5008358;28;20279;-69
2023/03/05 01:11:06;;;;;;;5.97;1.93;;;2.90;99.90;;;;;;5008854;28;20206;-69
2023/03/05 01:13:33;;;;;;;8.47;1.83;;;2.90;99.90;;;;;;5009168;28;20293;-69
2023/03/05 01:16:00;;;;;;;5.67;1.70;;;2.90;99.90;;;;;;5009280;28;20240;-69
2023/03/05 01:18:27;;;;;;;4.70;1.60;;;2.90;99.90;;;;;;5008999;28;20288;-69
2023/03/05 01:20:56;;;;;;;8.27;1.90;;;2.90;99.90;;;;;;5003739;28;20238;-72
2023/03/05 01:23:23;;;;;;;4.07;1.63;;;2.90;99.90;;;;;;5006882;28;20774;-70
2023/03/05 01:25:54;;;;;;;4.67;1.50;;;2.90;99.90;;;;;;5007973;28;20245;-70
2023/03/05 01:28:21;;;;;;;8.80;1.83;;;2.90;99.90;;;;;;5007789;28;20199;-69
2023/03/05 01:30:48;;;;;;;3.93;2.00;;;2.90;99.90;;;;;;5007281;28;20293;-70
2023/03/05 01:33:15;;;;;;;4.40;1.83;;;2.90;99.90;;;;;;5007738;28;20328;-69
2023/03/05 01:35:41;;;;;;;4.23;1.53;;;2.80;99.90;;;;;;5007481;28;20288;-70
2023/03/05 01:38:10;;;;;;;2.47;1.37;;;2.80;99.90;;;;;;5006404;28;20756;-69
2023/03/05 01:40:37;;;;;;;5.70;1.40;;;2.70;99.90;;;;;;5008989;28;20244;-72
2023/03/05 01:43:22;;;;;;;5.40;2.00;;;2.70;99.90;;;;;;5008780;28;20324;-71
2023/03/05 01:46:33;;;;;;;2.37;1.40;;;2.70;99.90;;;;;;5009144;28;20577;-69
2023/03/05 01:49:15;;;;;;;4.13;1.40;;;2.60;99.90;;;;;;5009116;28;20201;-70
2023/03/05 01:52:02;;;;;;;2.87;1.50;;;2.60;99.90;;;;;;4992381;28;20224;-69
2023/03/05 01:54:35;;;;;;;7.53;1.40;;;2.60;99.90;;;;;;5008697;28;20334;-69
2023/03/05 01:57:07;;;;;;;4.63;1.57;;;2.60;99.90;;;;;;5008883;28;20189;-69
2023/03/05 01:59:36;;;;;;;3.23;1.00;;;2.60;99.90;;;;;;5008605;28;20206;-70
2023/03/05 02:02:04;;;;;;;5.80;1.47;;;2.50;99.90;;;;;;5007770;28;20268;-69
2023/03/05 02:04:37;;;;;;;6.17;1.47;;;2.60;99.90;;;;;;5008224;28;20307;-69
2023/03/05 02:07:05;;;;;;;2.43;1.13;;;2.50;99.90;;;;;;5007644;28;20672;-69
2023/03/05 02:09:33;;;;;;;3.73;1.30;;;2.50;99.90;;;;;;5007525;28;20240;-69
2023/03/05 02:12:00;;;;;;;4.53;1.03;;;2.50;99.90;;;;;;5003266;28;20210;-68
2023/03/05 02:14:27;;;;;;;3.07;1.10;;;2.50;99.90;;;;;;5011835;28;20241;-68
2023/03/05 02:16:54;;;;;;;3.40;1.10;;;2.50;99.90;;;;;;5007910;28;20201;-68
2023/03/05 02:19:21;;;;;;;2.60;1.37;;;2.50;99.90;;;;;;5007894;28;20241;-70
2023/03/05 02:21:50;;;;;;;3.80;1.47;;;2.40;99.90;;;;;;5007804;28;20939;-69
2023/03/05 02:24:19;;;;;;;6.03;1.60;;;2.50;99.90;;;;;;5007695;28;20691;-69
2023/03/05 02:26:47;;;;;;;3.40;1.37;;;2.40;99.90;;;;;;5007796;28;20229;-69
2023/03/05 02:29:19;;;;;;;3.93;1.10;;;2.40;99.90;;;;;;5007804;28;20281;-71
2023/03/05 02:31:46;;;;;;;4.33;1.40;;;2.30;99.90;;;;;;5007911;28;20287;-70
2023/03/05 02:34:13;;;;;;;4.30;1.50;;;2.30;99.90;;;;;;5007938;28;20233;-71
2023/03/05 02:36:40;;;;;;;3.13;1.13;;;2.30;99.90;;;;;;5007813;28;20332;-71
2023/03/05 02:39:09;;;;;;;2.60;1.27;;;2.30;99.90;;;;;;5007705;28;20237;-71
2023/03/05 02:41:36;;;;;;;4.07;1.07;;;2.30;99.90;;;;;;5006969;28;20228;-71
2023/03/05 02:44:03;;;;;;;4.37;1.30;;;2.30;99.90;;;;;;5007199;28;20272;-72
2023/03/05 02:46:30;;;;;;;5.23;1.30;;;2.30;99.90;;;;;;5007530;28;20245;-72
2023/03/05 02:48:57;;;;;;;2.30;1.27;;;2.40;99.90;;;;;;5007240;28;20228;-73
2023/03/05 02:51:24;;;;;;;2.13;1.30;;;2.30;99.90;;;;;;5007750;28;20292;-73
2023/03/05 02:53:51;;;;;;;1.97;1.10;;;2.30;99.90;;;;;;5007326;28;20675;-73
2023/03/05 02:56:19;;;;;;;3.43;1.40;;;2.40;99.90;;;;;;5007438;28;20208;-73
2023/03/05 02:58:46;;;;;;;4.57;1.40;;;2.40;99.90;;;;;;5007787;28;20288;-74
2023/03/05 03:01:13;;;;;;;3.13;1.10;;;2.40;99.90;;;;;;5007617;28;20205;-69
2023/03/05 03:03:40;;;;;;;3.63;1.70;;;2.40;99.90;;;;;;5006684;28;20320;-69
2023/03/05 03:06:07;;;;;;;4.33;1.23;;;2.40;99.90;;;;;;4987880;28;20644;-69
2023/03/05 03:08:34;;;;;;;9.50;1.93;;;2.40;99.90;;;;;;5005961;28;20664;-70
2023/03/05 03:11:06;;;;;;;4.97;1.40;;;2.40;99.90;;;;;;5007136;28;20216;-69
2023/03/05 03:13:34;;;;;;;2.90;1.40;;;2.40;99.90;;;;;;5007300;28;20379;-69
2023/03/05 03:16:05;;;;;;;3.53;1.20;;;2.30;99.90;;;;;;5007483;28;20652;-70
2023/03/05 03:18:32;;;;;;;5.93;1.57;;;2.30;99.90;;;;;;5007331;28;20289;-70
2023/03/05 03:20:59;;;;;;;5.37;1.53;;;2.30;99.90;;;;;;5007392;28;20229;-70
2023/03/05 03:23:26;;;;;;;3.90;1.87;;;2.30;99.90;;;;;;5006858;28;20308;-70
2023/03/05 03:25:53;;;;;;;2.63;1.47;;;2.40;99.90;;;;;;5007028;28;20301;-70
2023/03/05 03:28:20;;;;;;;6.77;1.50;;;2.30;99.90;;;;;;5007109;28;20309;-70
2023/03/05 03:30:49;;;;;;;5.17;1.30;;;2.30;99.90;;;;;;5006973;28;20205;-70
2023/03/05 03:33:17;;;;;;;5.33;1.53;;;2.30;99.90;;;;;;5007377;28;20245;-70
2023/03/05 03:35:44;;;;;;;4.93;2.10;;;2.30;99.90;;;;;;5006691;28;20251;-69
2023/03/05 03:38:12;;;;;;;4.90;1.70;;;2.30;99.90;;;;;;5006816;28;20614;-69
2023/03/05 03:40:40;;;;;;;5.77;2.03;;;2.20;99.90;;;;;;5005001;28;20205;-69
2023/03/05 03:43:07;;;;;;;3.70;1.63;;;2.20;99.90;;;;;;4996425;28;20212;-69
2023/03/05 03:45:34;;;;;;;1.63;1.20;;;2.20;99.90;;;;;;5006793;28;20265;-71
2023/03/05 03:48:02;;;;;;;6.43;1.47;;;2.10;99.90;;;;;;5007485;28;20292;-69
2023/03/05 03:50:29;;;;;;;4.87;1.20;;;2.10;99.90;;;;;;5006966;28;20204;-70
2023/03/05 03:52:56;;;;;;;2.97;1.47;;;2.10;99.90;;;;;;5007224;28;20197;-69
2023/03/05 03:55:23;;;;;;;3.87;1.50;;;2.10;99.90;;;;;;5011099;28;20299;-69
2023/03/05 03:57:50;;;;;;;3.70;2.00;;;2.00;99.90;;;;;;5010917;28;20312;-69
2023/03/05 04:00:18;;;;;;;2.67;1.67;;;2.00;99.90;;;;;;5010651;28;20264;-70
2023/03/05 04:02:45;;;;;;;3.23;1.00;;;1.90;99.90;;;;;;5010517;28;20639;-69
2023/03/05 04:05:13;;;;;;;4.10;1.33;;;1.90;99.90;;;;;;5010727;28;20685;-69
2023/03/05 04:07:40;;;;;;;2.90;1.30;;;2.00;99.90;;;;;;5010123;28;20304;-70
2023/03/05 04:10:08;;;;;;;4.30;1.30;;;1.90;99.90;;;;;;5010419;28;20662;-69
2023/03/05 04:12:35;;;;;;;2.43;1.10;;;1.90;99.90;;;;;;4993384;28;20305;-69
2023/03/05 04:15:02;;;;;;;3.03;1.77;;;1.80;99.90;;;;;;4990964;28;20241;-69
2023/03/05 04:17:29;;;;;;;6.77;1.63;;;1.80;99.90;;;;;;5000935;28;20202;-70
2023/03/05 04:19:56;;;;;;;7.30;1.90;;;1.80;99.90;;;;;;5010508;28;20300;-69
2023/03/05 04:22:24;;;;;;;4.47;1.40;;;1.80;99.90;;;;;;5010629;28;20210;-69
2023/03/05 04:24:51;;;;;;;2.87;1.83;;;1.70;99.90;;;;;;5009848;28;20362;-69
2023/03/05 04:27:18;;;;;;;2.87;1.10;;;1.70;99.90;;;;;;5010295;28;20210;-69
2023/03/05 04:29:45;;;;;;;4.57;1.90;;;1.70;99.90;;;;;;5009686;28;20241;-69
2023/03/05 04:32:12;;;;;;;2.07;1.00;;;1.70;99.90;;;;;;5010228;28;20241;-69
2023/03/05 04:34:39;;;;;;;6.17;1.30;;;1.70;99.90;;;;;;5009955;28;20304;-70
2023/03/05 04:37:06;;;;;;;2.60;1.10;;;1.70;99.90;;;;;;5009679;28;20305;-70
2023/03/05 04:39:34;;;;;;;1.63;1.10;;;1.70;99.90;;;;;;5009719;28;20250;-70
2023/03/05 04:42:01;;;;;;;4.30;1.40;;;1.70;99.90;;;;;;4996521;28;20300;-70
2023/03/05 04:44:28;;;;;;;3.27;1.13;;;1.60;99.90;;;;;;4990325;28;20311;-70
2023/03/05 04:46:55;;;;;;;4.00;1.20;;;1.60;99.90;;;;;;4990387;28;20615;-69
2023/03/05 04:49:22;;;;;;;3.53;1.10;;;1.70;99.90;;;;;;5004163;28;20229;-68
2023/03/05 04:51:48;;;;;;;4.67;1.47;;;1.70;99.90;;;;;;5009766;28;20252;-68
2023/03/05 04:54:15;;;;;;;3.17;1.03;;;1.60;99.90;;;;;;5009026;28;20892;-68
2023/03/05 04:56:43;;;;;;;4.77;1.20;;;1.60;99.90;;;;;;5009275;28;20260;-69
2023/03/05 04:59:10;;;;;;;3.67;1.10;;;1.60;99.90;;;;;;5009435;28;20296;-69
2023/03/05 05:01:37;;;;;;;2.43;0.97;;;1.60;99.90;;;;;;5009520;28;20210;-69
2023/03/05 05:04:04;;;;;;;3.73;1.10;;;1.60;99.90;;;;;;5009025;28;20262;-69
2023/03/05 05:06:31;;;;;;;4.20;1.10;;;1.60;99.90;;;;;;5008570;28;20293;-69
2023/03/05 05:08:58;;;;;;;4.17;1.27;;;1.60;99.90;;;;;;5008795;28;20746;-69
2023/03/05 05:11:25;;;;;;;2.83;0.90;;;1.60;99.90;;;;;;5009304;28;20304;-69
2023/03/05 05:13:53;;;;;;;3.23;1.10;;;1.60;99.90;;;;;;5009312;28;20251;-69
2023/03/05 05:16:20;;;;;;;4.80;1.10;;;1.70;99.90;;;;;;5009304;28;20210;-69
2023/03/05 05:18:47;;;;;;;3.27;1.33;;;1.70;99.90;;;;;;5009127;28;20255;-69
2023/03/05 05:21:17;;;;;;;2.23;1.07;;;1.70;99.90;;;;;;5009148;28;20320;-69
2023/03/05 05:23:44;;;;;;;1.60;1.20;;;1.60;99.90;;;;;;5008856;28;20264;-69
2023/03/05 05:26:13;;;;;;;4.97;1.17;;;1.70;99.90;;;;;;5009035;28;20320;-69
2023/03/05 05:28:41;;;;;;;4.30;1.43;;;1.60;99.90;;;;;;5008965;28;20205;-69
2023/03/05 05:31:11;;;;;;;2.17;1.10;;;1.60;99.90;;;;;;4989305;28;20301;-69
2023/03/05 05:33:38;;;;;;;6.13;1.13;;;1.60;99.90;;;;;;4989453;28;20289;-69
2023/03/05 05:36:07;;;;;;;7.93;1.33;;;1.70;99.90;;;;;;5001321;28;20215;-69
2023/03/05 05:38:34;;;;;;;5.60;1.40;;;1.70;99.90;;;;;;5008064;28;20304;-70
2023/03/05 05:41:03;;;;;;;3.90;1.20;;;1.70;99.90;;;;;;5007078;28;20625;-69
2023/03/05 05:43:30;;;;;;;4.23;1.20;;;1.70;99.90;;;;;;5008741;28;20214;-69
2023/03/05 05:46:00;;;;;;;3.80;1.07;;;1.70;99.90;;;;;;5008518;28;20677;-70
2023/03/05 05:48:30;;;;;;;5.77;1.13;;;1.70;99.90;;;;;;5008721;28;20306;-70
2023/03/05 05:50:58;;;;;;;3.23;1.40;;;1.70;99.90;;;;;;5008636;28;20218;-69
2023/03/05 05:53:25;;;;;;;3.07;1.23;;;1.70;99.90;;;;;;5008215;28;20260;-69
2023/03/05 05:55:52;;;;;;;3.27;1.17;;;1.70;99.90;;;;;;5008279;28;20205;-69
2023/03/05 05:58:19;;;;;;;2.47;1.43;;;1.80;99.90;;;;;;5008504;28;20205;-70
2023/03/05 06:00:46;;;;;;;7.77;1.67;;;1.80;99.90;;;;;;5007947;28;20249;-69
2023/03/05 06:03:12;;;;;;;2.37;1.53;;;1.80;99.90;;;;;;5008409;28;20212;-69
2023/03/05 06:05:42;;;;;;;2.97;1.40;;;1.80;99.90;;;;;;5008034;28;20239;-69
2023/03/05 06:08:10;;;;;;;3.60;1.43;;;1.80;99.90;;;;;;5007883;28;20261;-69
2023/03/05 06:10:36;;;;;;;3.93;1.67;;;1.80;99.90;;;;;;5006339;28;20206;-69
2023/03/05 06:13:03;;;;;;;5.60;1.50;;;1.90;99.90;;;;;;4988399;28;20234;-68
2023/03/05 06:15:30;;;;;;;2.37;1.53;;;1.90;99.90;;;;;;4988404;28;20299;-68
2023/03/05 06:17:59;;;;;;;4.00;1.37;;;1.90;99.90;;;;;;4987498;28;20216;-70
2023/03/05 06:20:26;;;;;;;5.97;1.70;;;1.90;99.90;;;;;;5005501;28;20292;-71
2023/03/05 06:22:55;;;;;;;3.13;1.20;;;1.90;99.90;;;;;;5008012;28;20307;-71
2023/03/05 06:25:22;;;;;;;2.67;1.20;;;1.90;99.90;;;;;;5008106;28;20233;-72
2023/03/05 06:27:48;;;;;;;3.53;1.10;;;1.90;99.90;;;;;;5007997;28;20288;-71
2023/03/05 06:30:16;;;;;;;5.03;1.13;;;1.90;99.90;;;;;;5007804;28;20293;-71
2023/03/05 06:32:42;;;;;;;5.03;1.60;;;2.00;99.90;;;;;;5007558;28;20216;-71
2023/03/05 06:35:09;;;;;;;2.13;1.10;;;2.00;99.90;;;;;;5007539;28;20758;-70
2023/03/05 06:37:36;;;;;;;3.47;1.60;;;2.00;99.90;;;;;;5007489;28;20241;-69
2023/03/05 06:40:06;;;;;;;1.90;1.27;;;2.10;99.90;;;;;;5007621;28;20244;-70
2023/03/05 06:42:34;;;;;;;4.67;1.60;;;2.10;99.90;;;;;;5007670;28;20291;-71
2023/03/05 06:45:01;;;;;;;1.60;1.03;;;2.10;99.90;;;;;;5007596;28;20611;-70
2023/03/05 06:47:28;;;;;;;2.60;1.13;;;2.10;99.90;;;;;;5007720;28;20210;-71
2023/03/05 06:49:55;;;;;;;6.60;1.23;;;2.10;99.90;;;;;;5007554;28;20197;-70
2023/03/05 06:52:22;;;;;;;3.87;1.13;;;2.10;99.90;;;;;;4999490;28;20234;-70
2023/03/05 06:54:49;;;;;;;1.67;1.10;;;2.10;99.90;;;;;;4989532;28;20300;-70
2023/03/05 06:57:17;;;;;;;2.67;1.10;;;2.10;99.90;;;;;;5007812;28;20586;-70
2023/03/05 06:59:44;;;;;;;3.37;0.93;;;2.10;99.90;;;;;;5007249;28;20280;-70
2023/03/05 07:02:12;;;;;;;3.30;1.20;;;2.10;99.90;;;;;;5007664;28;20292;-70
2023/03/05 07:04:39;;;;;;;5.53;1.77;;;2.10;99.90;;;;;;5006705;28;20237;-70
2023/03/05 07:07:06;;;;;;;4.37;1.63;;;2.20;99.90;;;;;;5007692;28;20233;-70
2023/03/05 07:09:33;;;;;;;3.43;1.73;;;2.20;99.90;;;;;;5006996;28;20781;-71
2023/03/05 07:12:00;;;;;;;1.47;0.83;;;2.20;99.90;;;;;;5007797;28;20650;-71
2023/03/05 07:14:28;;;;;;;3.30;1.20;;;2.20;99.90;;;;;;5007284;28;20295;-69
2023/03/05 07:16:55;;;;;;;3.20;1.30;;;2.30;99.90;;;;;;5006850;28;20248;-70
2023/03/05 07:19:22;;;;;;;3.33;1.07;;;2.30;99.90;;;;;;5006719;28;20730;-70
2023/03/05 07:21:49;;;;;;;2.90;1.17;;;2.30;99.90;;;;;;5006786;28;20660;-71
2023/03/05 07:24:16;;;;;;;2.10;0.87;;;2.30;99.90;;;;;;5006708;28;20208;-71
2023/03/05 07:26:42;;;;;;;1.90;1.00;;;2.30;99.90;;;;;;5006971;28;20237;-71
2023/03/05 07:29:09;;;;;;;2.07;1.30;;;2.40;99.90;;;;;;5006656;28;20301;-70
2023/03/05 07:31:38;;;;;;;2.90;1.80;;;2.40;99.90;;;;;;5006965;28;20233;-68
2023/03/05 07:34:05;;;;;;;3.27;1.10;;;2.40;99.90;;;;;;5006801;28;20795;-68
2023/03/05 07:36:33;;;;;;;1.63;1.13;;;2.40;99.90;;;;;;5006734;28;20217;-68
2023/03/05 07:39:01;;;;;;;1.80;0.90;;;2.40;99.90;;;;;;5006770;28;20212;-68
2023/03/05 07:41:28;;;;;;;2.90;0.90;;;2.50;99.90;;;;;;5006887;28;20690;-70
2023/03/05 07:43:55;;;;;;;2.50;1.27;;;2.50;99.90;;;;;;4994940;28;20567;-70
2023/03/05 07:46:25;;;;;;;2.90;1.17;;;2.50;99.90;;;;;;5006989;28;20323;-68
2023/03/05 07:48:54;;;;;;;2.57;1.10;;;2.50;99.90;;;;;;5005190;28;20280;-67
2023/03/05 07:51:23;;;;;;;3.83;1.07;;;2.50;99.90;;;;;;5006793;28;20317;-68
2023/03/05 07:53:51;;;;;;;4.07;1.33;;;2.60;99.90;;;;;;5006657;28;20699;-68
2023/03/05 07:56:23;;;;;;;2.20;1.10;;;2.60;99.90;;;;;;5007255;28;20235;-68
2023/03/05 07:58:50;;;;;;;4.90;1.17;;;2.60;99.90;;;;;;5006738;28;20197;-68
2023/03/05 08:01:17;;;;;;;4.27;1.47;;;2.60;99.90;;;;;;5006879;28;20256;-69
2023/03/05 08:03:44;;;;;;;4.20;1.50;;;2.60;99.90;;;;;;5006538;28;20231;-68
2023/03/05 08:06:12;;;;;;;2.80;1.10;;;2.70;99.90;;;;;;5006574;28;20494;-68
2023/03/05 08:08:39;;;;;;;2.20;1.20;;;2.80;99.90;;;;;;5006157;28;20320;-68
2023/03/05 08:11:08;;;;;;;5.70;1.20;;;2.80;99.90;;;;;;5006524;28;20296;-68
2023/03/05 08:13:35;;;;;;;3.77;1.30;;;2.90;99.90;;;;;;5006997;28;20214;-68
2023/03/05 08:16:05;;;;;;;1.33;1.13;;;3.00;99.90;;;;;;5006347;28;20253;-68
2023/03/05 08:18:32;;;;;;;4.23;1.40;;;3.20;99.90;;;;;;5006795;28;20303;-68
2023/03/05 08:20:59;;;;;;;2.10;1.07;;;3.30;99.90;;;;;;5006658;28;20216;-68
2023/03/05 08:23:28;;;;;;;3.30;1.20;;;3.40;99.90;;;;;;5006400;28;20206;-68
2023/03/05 08:25:55;;;;;;;3.00;1.20;;;3.50;99.90;;;;;;5006169;28;20236;-68
2023/03/05 08:28:22;;;;;;;2.77;0.83;;;3.50;99.90;;;;;;5006278;28;20304;-70
2023/03/05 08:30:49;;;;;;;2.57;1.30;;;3.30;99.90;;;;;;5006082;28;20289;-68
2023/03/05 08:33:17;;;;;;;3.97;1.20;;;3.30;99.90;;;;;;5005568;28;20292;-69
2023/03/05 08:35:44;;;;;;;2.07;0.97;;;3.40;99.90;;;;;;5006375;28;20241;-69
2023/03/05 08:38:11;;;;;;;2.27;1.30;;;3.40;99.90;;;;;;5006528;28;20249;-68
2023/03/05 08:40:39;;;;;;;1.37;0.90;;;3.50;99.90;;;;;;5008115;28;20233;-70
2023/03/05 08:43:06;;;;;;;3.60;1.13;;;3.50;99.90;;;;;;5010078;28;20296;-68
2023/03/05 08:45:33;;;;;;;2.20;0.97;;;3.50;99.90;;;;;;5009217;28;20751;-71
2023/03/05 08:48:00;;;;;;;2.43;0.73;;;3.50;99.90;;;;;;5009002;28;20303;-69
2023/03/05 08:50:27;;;;;;;5.70;1.30;;;3.50;99.90;;;;;;5009452;28;20295;-69
2023/03/05 08:52:55;;;;;;;3.50;0.97;;;3.50;99.90;;;;;;5008919;28;20215;-69
2023/03/05 08:55:22;;;;;;;3.43;1.07;;;3.50;99.90;;;;;;5009937;28;20589;-69
2023/03/05 08:57:50;;;;;;;2.03;1.07;;;3.50;99.90;;;;;;5009503;28;20300;-69
2023/03/05 09:00:18;;;;;;;2.23;1.10;;;3.60;99.90;;;;;;5009460;28;20828;-69
2023/03/05 09:02:45;;;;;;;1.50;1.17;;;3.60;99.90;;;;;;5007589;28;20289;-69
2023/03/05 09:05:12;;;;;;;4.23;1.10;;;3.60;99.90;;;;;;5008105;28;20237;-69
2023/03/05 09:07:39;;;;;;;4.73;0.90;;;3.70;99.90;;;;;;5007078;28;20240;-69
2023/03/05 09:10:09;;;;;;;3.53;1.13;;;3.70;99.90;;;;;;5007846;28;20206;-69
2023/03/05 09:12:36;;;;;;;1.10;0.77;;;3.70;99.90;;;;;;5007731;28;20695;-69
2023/03/05 09:15:06;;;;;;;2.30;1.20;;;3.60;99.90;;;;;;5007477;28;20214;-68
2023/03/05 09:17:33;;;;;;;3.23;0.97;;;3.70;99.90;;;;;;5007221;28;20206;-69
2023/03/05 09:20:01;;;;;;;2.73;1.10;;;3.70;99.90;;;;;;5007436;28;20237;-69
2023/03/05 09:22:28;;;;;;;0.80;0.80;;;3.70;99.90;;;;;;5007480;28;20305;-69
2023/03/05 09:24:55;;;;;;;2.23;0.90;;;3.70;99.90;;;;;;5007275;28;20456;-69
2023/03/05 09:27:22;;;;;;;3.90;1.00;;;3.70;99.90;;;;;;5007413;28;20214;-69
2023/03/05 09:29:51;;;;;;;1.83;1.00;;;3.70;99.90;;;;;;5007404;28;20312;-69
2023/03/05 09:32:19;;;;;;;3.60;1.10;;;3.60;99.90;;;;;;5006995;28;20205;-69
2023/03/05 09:34:46;;;;;;;3.07;1.30;;;3.70;99.90;;;;;;5007371;28;20243;-69
2023/03/05 09:37:13;;;;;;;2.13;1.03;;;3.70;99.90;;;;;;5007010;28;20217;-69
2023/03/05 09:39:40;;;;;;;2.50;1.47;;;3.70;99.90;;;;;;5007164;28;20211;-69
2023/03/05 09:42:29;;;;;;;3.70;1.20;;;3.70;99.90;;;;;;5007152;28;20325;-69
2023/03/05 09:45:10;;;;;;;2.90;1.37;;;3.80;99.90;;;;;;5007353;28;20292;-69
2023/03/05 09:47:54;;;;;;;4.83;1.57;;;3.90;99.90;;;;;;5006618;28;20198;-69
2023/03/05 09:50:37;;;;;;;1.90;1.20;;;4.00;99.90;;;;;;5006153;28;20229;-69
2023/03/05 09:53:23;;;;;;;2.80;1.07;;;4.20;99.90;;;;;;5006100;28;20313;-69
2023/03/05 09:55:52;;;;;;;3.77;1.57;;;4.20;99.90;;;;;;5006388;28;20288;-69
2023/03/05 09:58:26;;;;;;;2.83;1.23;;;4.20;99.90;;;;;;5006595;28;20297;-69
2023/03/05 10:00:57;;;;;;;1.83;1.30;;;4.20;99.90;;;;;;5006398;28;20212;-69
2023/03/05 10:03:30;;;;;;;2.90;1.30;;;4.30;99.90;;;;;;5006024;28;20311;-69
2023/03/05 10:06:05;;;;;;;2.83;1.10;;;4.30;99.90;;;;;;5006386;28;21184;-69
2023/03/05 10:08:44;;;;;;;2.17;1.20;;;4.30;99.90;;;;;;5005933;28;20356;-69
2023/03/05 10:11:26;;;;;;;2.60;0.93;;;4.20;99.90;;;;;;5006519;28;20645;-69
2023/03/05 10:13:53;;;;;;;1.63;1.20;;;4.20;99.90;;;;;;5005899;28;20284;-70
2023/03/05 10:16:40;;;;;;;4.83;1.67;;;4.10;99.90;;;;;;5004787;28;20284;-69
2023/03/05 10:19:15;;;;;;;2.67;1.40;;;4.10;99.90;;;;;;5006006;28;20210;-69
2023/03/05 10:21:52;;;;;;;1.43;1.23;;;4.10;99.90;;;;;;5006636;28;20201;-70
2023/03/05 10:24:29;;;;;;;3.33;1.67;;;4.10;99.90;;;;;;5006632;28;20277;-69
2023/03/05 10:26:59;;;;;;;2.20;1.27;;;4.20;99.90;;;;;;5006054;28;20315;-69
2023/03/05 10:29:43;;;;;;;1.43;1.00;;;4.30;99.90;;;;;;5006152;28;20290;-69
2023/03/05 10:32:22;;;;;;;1.50;1.40;;;4.40;99.90;;;;;;5006126;28;20212;-69
2023/03/05 10:35:12;;;;;;;2.77;1.10;;;4.30;99.90;;;;;;5006182;28;20209;-69
2023/03/05 10:38:06;;;;;;;3.67;1.70;;;4.30;99.90;;;;;;5005875;28;20267;-69
2023/03/05 10:40:40;;;;;;;1.90;1.10;;;4.30;99.90;;;;;;5005893;28;20789;-70
2023/03/05 10:43:19;;;;;;;2.00;1.57;;;4.20;99.90;;;;;;5006211;28;20204;-69
2023/03/05 10:45:49;;;;;;;2.13;1.27;;;4.00;99.90;;;;;;5006076;28;20307;-69
2023/03/05 10:48:24;;;;;;;2.23;1.43;;;3.90;99.90;;;;;;5006342;28;20249;-69
2023/03/05 10:50:57;;;;;;;1.23;1.00;;;3.90;99.90;;;;;;5005407;28;20248;-70
2023/03/05 10:53:28;;;;;;;1.37;1.07;;;3.90;99.90;;;;;;5005800;28;20296;-70
2023/03/05 10:55:56;;;;;;;1.73;1.27;;;4.00;99.90;;;;;;5005413;28;20210;-70
2023/03/05 10:58:24;;;;;;;2.93;1.50;;;4.00;99.90;;;;;;5005383;28;20232;-69
2023/03/05 11:01:04;;;;;;;2.90;1.17;;;4.00;99.90;;;;;;5004850;28;20288;-70
2023/03/05 11:03:53;;;;;;;2.33;1.30;;;4.00;99.90;;;;;;4998235;28;20399;-70
2023/03/05 11:06:45;;;;;;;2.63;1.40;;;4.10;99.90;;;;;;5003294;28;20318;-70
2023/03/05 11:09:21;;;;;;;1.57;1.27;;;4.10;99.90;;;;;;4995098;28;20257;-70
2023/03/05 11:12:14;;;;;;;4.03;1.20;;;4.20;99.90;;;;;;5005663;28;20518;-70
2023/03/05 11:14:43;;;;;;;1.77;1.20;;;4.10;99.90;;;;;;5004900;28;20209;-69
2023/03/05 11:17:42;;;;;;;4.10;1.27;;;4.10;99.90;;;;;;5005684;28;20296;-69
2023/03/05 11:20:31;;;;;;;2.73;1.07;;;4.10;99.90;;;;;;4963334;28;20258;-69
2023/03/05 11:23:13;;;;;;;1.40;1.07;;;4.00;99.90;;;;;;5002533;28;20552;-70
2023/03/05 11:26:18;;;;;;;1.70;1.33;;;4.00;99.90;;;;;;5005319;28;20197;-70
2023/03/05 11:28:57;;;;;;;1.50;1.10;;;3.90;99.90;;;;;;4974237;28;20676;-69
2023/03/05 11:31:26;;;;;;;1.87;1.40;;;3.90;99.90;;;;;;4990493;28;20628;-70
2023/03/05 11:33:59;;;;;;;1.80;1.30;;;3.90;99.90;;;;;;5005606;28;20564;-69
2023/03/05 11:36:30;;;;;;;2.73;1.07;;;3.90;99.90;;;;;;5005613;28;20284;-69
2023/03/05 11:39:08;;;;;;;3.20;1.37;;;4.00;99.90;;;;;;4985888;28;20198;-69
2023/03/05 11:41:38;;;;;;;1.70;1.17;;;4.00;99.90;;;;;;4995234;28;20213;-69
2023/03/05 11:44:12;;;;;;;2.70;1.10;;;4.00;99.90;;;;;;5005085;28;20660;-69
2023/03/05 11:46:43;;;;;;;2.00;1.30;;;3.90;99.90;;;;;;5005409;28;20260;-69
2023/03/05 11:49:15;;;;;;;3.13;1.40;;;3.90;99.90;;;;;;5005428;28;20254;-69
2023/03/05 11:51:48;;;;;;;2.40;1.50;;;3.90;99.90;;;;;;5005087;28;20202;-69
2023/03/05 11:54:22;;;;;;;7.70;1.73;;;3.90;99.90;;;;;;5005311;28;20672;-69
2023/03/05 11:56:51;;;;;;;4.13;1.57;;;3.90;99.90;;;;;;5020607;28;20246;-69
2023/03/05 11:59:22;;;;;;;1.50;1.40;;;3.70;99.90;;;;;;5024940;28;20209;-69
2023/03/05 12:01:51;;;;;;;2.33;1.70;;;3.70;99.90;;;;;;5024847;28;20292;-69
2023/03/05 12:04:20;;;;;;;1.80;1.63;;;3.80;99.90;;;;;;5024358;28;20776;-69
2023/03/05 12:06:49;;;;;;;2.00;1.50;;;3.90;99.90;;;;;;5023430;28;20382;-69
2023/03/05 12:09:24;;;;;;;3.43;1.67;;;4.10;99.90;;;;;;5004380;28;20726;-69
2023/03/05 12:11:57;;;;;;;1.97;1.30;;;4.20;99.90;;;;;;5004737;28;20216;-69
2023/03/05 12:14:32;;;;;;;1.93;1.43;;;4.10;99.90;;;;;;5002721;28;20292;-69
2023/03/05 12:17:07;;;;;;;2.07;1.47;;;4.30;99.90;;;;;;5010130;28;20213;-69
2023/03/05 12:19:46;;;;;;;1.90;1.50;;;4.40;99.90;;;;;;5010163;28;20224;-69
2023/03/05 12:22:18;;;;;;;3.20;1.50;;;4.40;99.90;;;;;;5010222;28;20747;-69
2023/03/05 12:24:47;;;;;;;5.43;1.50;;;4.40;99.90;;;;;;5009675;28;20680;-69
2023/03/05 12:27:16;;;;;;;1.50;1.40;;;4.40;99.90;;;;;;5009868;28;20835;-69
2023/03/05 12:29:49;;;;;;;2.83;1.43;;;4.20;99.90;;;;;;5009566;28;20299;-69
2023/03/05 12:33:02;;;;;;;2.37;1.80;;;4.30;99.90;;;;;;5009968;28;20272;-69
2023/03/05 12:35:31;;;;;;;1.70;1.50;;;4.30;99.90;;;;;;4990738;28;20256;-69
2023/03/05 12:38:01;;;;;;;4.10;1.43;;;4.40;99.90;;;;;;4990523;28;20218;-70
2023/03/05 12:40:30;;;;;;;3.43;1.50;;;4.40;99.90;;;;;;5009043;28;20228;-70
2023/03/05 12:42:59;;;;;;;2.03;1.13;;;4.30;99.90;;;;;;5009364;28;20221;-69
2023/03/05 12:45:35;;;;;;;2.10;1.30;;;4.30;99.90;;;;;;5007387;28;20260;-70
2023/03/05 12:48:39;;;;;;;1.73;1.30;;;4.30;99.90;;;;;;4990296;28;20698;-70
2023/03/05 12:51:06;;;;;;;2.27;1.50;;;4.30;99.90;;;;;;5006189;28;20267;-70
2023/03/05 12:53:33;;;;;;;1.20;1.10;;;4.40;99.90;;;;;;5009215;28;20268;-70
2023/03/05 12:56:13;;;;;;;3.87;1.50;;;4.30;99.90;;;;;;5009713;28;20681;-70
2023/03/05 12:58:43;;;;;;;3.03;1.60;;;4.50;99.90;;;;;;5009959;28;20308;-70
2023/03/05 13:01:34;;;;;;;1.83;1.50;;;4.70;99.90;;;;;;5009476;28;20305;-70
2023/03/05 13:04:09;;;;;;;2.53;1.37;;;4.70;99.90;;;;;;4992728;28;20691;-69
2023/03/05 13:06:38;;;;;;;3.13;1.50;;;4.70;99.90;;;;;;5009331;28;20225;-70
2023/03/05 13:09:12;;;;;;;2.17;1.40;;;4.60;99.90;;;;;;4989597;28;20277;-70
2023/03/05 13:11:44;;;;;;;1.47;1.37;;;4.50;99.90;;;;;;4992852;28;20185;-70
2023/03/05 13:14:29;;;;;;;1.00;1.00;;;4.50;99.90;;;;;;5005740;28;20242;-69